Time;durP1;ratioP1;P1;durP2;ratioP2;P2;SDS_P1;SDS_P2;PMS_P1;PMS_P2;Temp;Humidity;BMP_temperature;BMP_pressure;BME280_temperature;BME280_humidity;BME280_pressure;Samples;Min_cycle;Max_cycle;Signal;HPM_P1;HPM_P2
2023/12/15 00:00:46;;;;;;;2.72;1.48;;;6.60;90.00;;;;;;4961461;28;20039;-64
2023/12/15 00:03:12;;;;;;;2.53;1.67;;;6.70;90.10;;;;;;4962463;28;20065;-64
2023/12/15 00:05:37;;;;;;;2.35;1.58;;;6.60;90.00;;;;;;4959088;28;20069;-64
2023/12/15 00:08:03;;;;;;;2.53;2.10;;;6.50;89.60;;;;;;4955977;28;20063;-64
2023/12/15 00:10:29;;;;;;;2.78;1.67;;;6.50;89.40;;;;;;4958793;28;20823;-64
2023/12/15 00:12:54;;;;;;;2.50;1.80;;;6.40;89.60;;;;;;4960138;28;20559;-64
2023/12/15 00:15:20;;;;;;;3.85;2.22;;;6.40;89.80;;;;;;4963559;28;20035;-64
2023/12/15 00:17:45;;;;;;;4.20;2.00;;;6.40;89.80;;;;;;4962602;28;20027;-64
2023/12/15 00:20:11;;;;;;;4.80;2.03;;;6.30;89.80;;;;;;4962471;28;20065;-64
2023/12/15 00:22:36;;;;;;;2.20;1.70;;;6.30;89.60;;;;;;4961042;28;20499;-64
2023/12/15 00:25:02;;;;;;;2.13;1.67;;;6.30;89.80;;;;;;4969279;28;20042;-64
2023/12/15 00:27:28;;;;;;;1.33;1.23;;;6.20;89.60;;;;;;4969095;28;20066;-63
2023/12/15 00:29:53;;;;;;;2.25;1.17;;;6.20;89.50;;;;;;4959823;28;20034;-64
2023/12/15 00:32:19;;;;;;;1.13;1.02;;;6.20;89.60;;;;;;4969303;28;20473;-64
2023/12/15 00:34:44;;;;;;;1.13;1.02;;;6.10;89.90;;;;;;4958720;28;20511;-62
2023/12/15 00:37:10;;;;;;;1.30;1.20;;;6.10;90.10;;;;;;4959887;28;20023;-64
2023/12/15 00:39:36;;;;;;;1.00;0.90;;;6.10;90.00;;;;;;4967761;28;20035;-64
2023/12/15 00:42:04;;;;;;;1.85;1.02;;;6.10;90.00;;;;;;4962740;28;20031;-64
2023/12/15 00:44:29;;;;;;;0.82;0.82;;;6.10;90.00;;;;;;4966097;28;20534;-64
2023/12/15 00:46:55;;;;;;;1.10;0.98;;;6.10;90.00;;;;;;4963668;28;20073;-64
2023/12/15 00:49:20;;;;;;;1.08;0.90;;;6.00;90.00;;;;;;4963224;28;20506;-64
2023/12/15 00:51:46;;;;;;;1.10;1.00;;;6.10;90.00;;;;;;4967745;28;20034;-64
2023/12/15 00:54:12;;;;;;;1.17;1.05;;;6.00;89.80;;;;;;4963532;28;20881;-64
2023/12/15 00:56:37;;;;;;;0.88;0.85;;;6.00;89.80;;;;;;4963629;28;20123;-64
2023/12/15 00:59:04;;;;;;;1.23;1.00;;;6.00;89.80;;;;;;4942813;28;20031;-64
2023/12/15 01:01:30;;;;;;;1.10;1.00;;;6.00;89.90;;;;;;4962682;28;20070;-64
2023/12/15 01:03:55;;;;;;;1.00;0.90;;;5.90;90.00;;;;;;4964018;28;20070;-64
2023/12/15 01:06:21;;;;;;;1.15;1.00;;;5.90;90.00;;;;;;4967100;28;20058;-64
2023/12/15 01:08:46;;;;;;;1.52;0.98;;;5.90;90.00;;;;;;4952208;28;20474;-63
2023/12/15 01:11:12;;;;;;;0.65;0.65;;;5.90;90.00;;;;;;4961807;28;20055;-63
2023/12/15 01:13:37;;;;;;;1.00;0.90;;;5.90;90.00;;;;;;4959960;28;20038;-64
2023/12/15 01:16:07;;;;;;;0.90;0.90;;;5.90;90.10;;;;;;4969098;28;20070;-64
2023/12/15 01:18:32;;;;;;;0.85;0.80;;;5.90;90.10;;;;;;4966267;28;20046;-64
2023/12/15 01:20:58;;;;;;;1.55;1.10;;;5.90;90.10;;;;;;4960638;28;20325;-64
2023/12/15 01:23:24;;;;;;;1.08;0.93;;;5.90;90.10;;;;;;4958809;28;20043;-64
2023/12/15 01:25:49;;;;;;;1.30;1.20;;;5.90;90.10;;;;;;4966513;28;20217;-63
2023/12/15 01:28:15;;;;;;;2.30;1.13;;;5.90;90.00;;;;;;4966457;28;20049;-64
2023/12/15 01:30:40;;;;;;;1.20;1.10;;;5.90;90.00;;;;;;4968884;28;20066;-64
2023/12/15 01:33:06;;;;;;;2.08;1.10;;;5.90;89.80;;;;;;4957361;28;20038;-64
2023/12/15 01:35:31;;;;;;;1.35;1.20;;;5.90;89.70;;;;;;4966212;28;20080;-64
2023/12/15 01:37:57;;;;;;;1.15;1.05;;;5.90;89.80;;;;;;4966148;28;20443;-63
2023/12/15 01:40:22;;;;;;;0.98;0.90;;;5.80;89.90;;;;;;4963617;28;20031;-64
2023/12/15 01:42:48;;;;;;;1.00;0.90;;;5.80;90.00;;;;;;4965675;28;20051;-64
2023/12/15 01:45:14;;;;;;;1.10;1.00;;;5.80;90.10;;;;;;4963884;28;20043;-64
2023/12/15 01:47:40;;;;;;;1.40;1.10;;;5.80;90.10;;;;;;4969059;28;20090;-64
2023/12/15 01:50:08;;;;;;;1.40;1.30;;;5.80;90.10;;;;;;4966184;28;20035;-64
2023/12/15 01:52:34;;;;;;;1.33;0.90;;;5.80;90.10;;;;;;4966721;28;20082;-63
2023/12/15 01:55:00;;;;;;;1.10;0.95;;;5.80;90.20;;;;;;4961652;28;20043;-64
2023/12/15 01:57:26;;;;;;;1.65;1.40;;;5.80;90.20;;;;;;4960113;28;20063;-64
2023/12/15 01:59:51;;;;;;;1.10;1.00;;;5.90;90.30;;;;;;4970870;28;20081;-64
2023/12/15 02:02:18;;;;;;;1.05;0.98;;;5.90;90.30;;;;;;4959669;28;20039;-64
2023/12/15 02:04:44;;;;;;;1.45;1.35;;;5.90;90.20;;;;;;4960750;28;20038;-64
2023/12/15 02:07:10;;;;;;;1.10;1.00;;;5.90;90.30;;;;;;4965790;28;20049;-64
2023/12/15 02:09:39;;;;;;;1.20;1.10;;;5.90;90.30;;;;;;4949553;28;20031;-63
2023/12/15 02:12:05;;;;;;;1.30;1.20;;;5.90;90.30;;;;;;4962346;28;20043;-64
2023/12/15 02:14:30;;;;;;;1.30;1.20;;;5.90;90.30;;;;;;4960950;28;20035;-64
2023/12/15 02:16:56;;;;;;;2.08;1.00;;;5.90;90.30;;;;;;4967305;28;20041;-64
2023/12/15 02:19:21;;;;;;;1.23;1.13;;;5.90;90.40;;;;;;4965586;28;20097;-63
2023/12/15 02:21:47;;;;;;;0.93;0.93;;;5.90;90.40;;;;;;4961039;28;20039;-63
2023/12/15 02:24:13;;;;;;;1.10;1.00;;;5.90;90.30;;;;;;4954178;28;20438;-64
2023/12/15 02:26:38;;;;;;;1.30;1.20;;;5.90;90.40;;;;;;4962941;28;20039;-64
2023/12/15 02:29:04;;;;;;;1.10;1.00;;;5.90;90.40;;;;;;4964879;28;20039;-63
2023/12/15 02:31:29;;;;;;;1.00;1.00;;;5.90;90.50;;;;;;4969661;28;20054;-64
2023/12/15 02:33:55;;;;;;;1.38;1.27;;;5.90;90.50;;;;;;4962053;28;20107;-63
2023/12/15 02:36:22;;;;;;;1.38;1.15;;;5.90;90.50;;;;;;4967097;28;20638;-63
2023/12/15 02:38:47;;;;;;;1.52;1.42;;;5.80;90.50;;;;;;4968377;28;20330;-62
2023/12/15 02:41:13;;;;;;;1.33;1.23;;;5.80;90.50;;;;;;4962130;28;20198;-64
2023/12/15 02:43:39;;;;;;;1.50;1.40;;;5.90;90.60;;;;;;4970042;28;20093;-64
2023/12/15 02:46:06;;;;;;;1.52;1.38;;;5.90;90.60;;;;;;4966411;28;20034;-63
2023/12/15 02:48:32;;;;;;;1.60;1.50;;;5.90;90.60;;;;;;4965505;28;20065;-63
2023/12/15 02:50:58;;;;;;;1.73;1.63;;;5.90;90.60;;;;;;4964766;28;20035;-64
2023/12/15 02:53:23;;;;;;;1.95;1.67;;;5.90;90.60;;;;;;4957756;28;20443;-64
2023/12/15 02:55:49;;;;;;;1.77;1.65;;;5.90;90.60;;;;;;4959760;28;20042;-63
2023/12/15 02:58:18;;;;;;;2.40;1.60;;;5.90;90.50;;;;;;4965240;28;20110;-63
2023/12/15 03:00:44;;;;;;;1.70;1.60;;;5.90;90.60;;;;;;4962179;28;20054;-63
2023/12/15 03:03:10;;;;;;;1.40;1.30;;;5.90;90.60;;;;;;4962066;28;20047;-63
2023/12/15 03:05:35;;;;;;;1.05;1.05;;;5.90;90.60;;;;;;4959534;28;20369;-64
2023/12/15 03:08:02;;;;;;;1.30;1.20;;;5.90;90.50;;;;;;4955528;28;20345;-63
2023/12/15 03:10:28;;;;;;;1.20;1.10;;;6.00;90.50;;;;;;4965268;28;20121;-64
2023/12/15 03:12:53;;;;;;;1.50;1.40;;;5.90;90.50;;;;;;4960909;28;20181;-63
2023/12/15 03:15:19;;;;;;;1.70;1.60;;;6.00;90.50;;;;;;4960320;28;20047;-63
2023/12/15 03:17:44;;;;;;;2.30;2.10;;;6.00;90.40;;;;;;4958504;28;20039;-63
2023/12/15 03:20:10;;;;;;;2.30;2.10;;;6.00;90.30;;;;;;4959234;28;20329;-63
2023/12/15 03:22:37;;;;;;;2.00;1.90;;;6.00;90.10;;;;;;4965710;28;20035;-64
2023/12/15 03:25:05;;;;;;;2.15;1.75;;;6.00;90.20;;;;;;4961487;28;20426;-63
2023/12/15 03:27:30;;;;;;;2.00;1.85;;;6.00;90.20;;;;;;4960849;28;20461;-63
2023/12/15 03:29:56;;;;;;;2.38;2.17;;;6.00;90.20;;;;;;4961794;28;20261;-64
2023/12/15 03:32:22;;;;;;;2.47;2.28;;;6.00;90.20;;;;;;4967196;28;20469;-63
2023/12/15 03:34:47;;;;;;;2.50;2.30;;;6.00;90.20;;;;;;4963942;28;20039;-64
2023/12/15 03:37:13;;;;;;;3.60;2.92;;;6.00;90.20;;;;;;4958214;28;20047;-63
2023/12/15 03:39:39;;;;;;;2.85;2.65;;;6.00;90.20;;;;;;4968058;28;20112;-64
2023/12/15 03:42:06;;;;;;;3.45;3.15;;;6.00;90.20;;;;;;4976705;28;20352;-63
2023/12/15 03:44:39;;;;;;;4.00;3.60;;;5.90;90.10;;;;;;4960399;28;20514;-63
2023/12/15 03:47:06;;;;;;;3.80;3.47;;;5.90;90.10;;;;;;4967208;28;20065;-63
2023/12/15 03:49:34;;;;;;;4.35;3.95;;;5.90;90.10;;;;;;4962729;28;20033;-63
2023/12/15 03:52:01;;;;;;;4.53;3.83;;;5.90;90.20;;;;;;4962501;28;20035;-63
2023/12/15 03:54:26;;;;;;;4.82;4.32;;;5.90;90.20;;;;;;4956021;28;20377;-64
2023/12/15 03:56:59;;;;;;;4.63;4.18;;;5.90;90.20;;;;;;4960417;28;20089;-63
2023/12/15 03:59:24;;;;;;;4.63;4.22;;;5.90;90.10;;;;;;4959473;28;20487;-64
2023/12/15 04:01:50;;;;;;;5.15;4.65;;;5.90;90.10;;;;;;4957125;28;20069;-63
2023/12/15 04:04:17;;;;;;;5.28;4.28;;;5.90;90.00;;;;;;4962509;28;20410;-62
2023/12/15 04:06:42;;;;;;;5.85;4.88;;;5.90;89.80;;;;;;4958491;28;20380;-63
2023/12/15 04:09:11;;;;;;;5.38;4.82;;;6.00;89.60;;;;;;4955251;28;20034;-63
2023/12/15 04:11:37;;;;;;;6.10;4.90;;;5.90;89.60;;;;;;4963046;28;20483;-63
2023/12/15 04:14:04;;;;;;;5.38;4.72;;;5.90;89.60;;;;;;4960566;28;20530;-63
2023/12/15 04:16:30;;;;;;;5.50;4.72;;;5.90;89.40;;;;;;4961303;28;20043;-64
2023/12/15 04:18:58;;;;;;;9.25;5.05;;;5.90;89.40;;;;;;4958383;28;20051;-64
2023/12/15 04:21:23;;;;;;;6.20;4.88;;;5.80;89.30;;;;;;4960360;28;20031;-63
2023/12/15 04:23:50;;;;;;;6.68;4.72;;;5.80;89.30;;;;;;4956985;28;20042;-63
2023/12/15 04:26:19;;;;;;;5.93;5.32;;;5.80;89.40;;;;;;4961125;28;20034;-63
2023/12/15 04:28:44;;;;;;;6.07;5.22;;;5.80;89.60;;;;;;4962870;28;20038;-63
2023/12/15 04:31:13;;;;;;;6.72;5.65;;;5.80;89.60;;;;;;4955851;28;20023;-64
2023/12/15 04:33:39;;;;;;;6.20;5.15;;;5.80;89.60;;;;;;4960350;28;20039;-64
2023/12/15 04:36:05;;;;;;;8.07;6.05;;;5.90;89.80;;;;;;4961269;28;20058;-64
2023/12/15 04:38:31;;;;;;;8.98;6.28;;;5.90;89.80;;;;;;4964533;28;20093;-64
2023/12/15 04:40:57;;;;;;;7.68;5.95;;;5.90;89.80;;;;;;4961570;28;20443;-64
2023/12/15 04:43:22;;;;;;;7.43;5.80;;;5.90;89.80;;;;;;4962761;28;20049;-64
2023/12/15 04:45:48;;;;;;;7.00;5.72;;;5.90;89.60;;;;;;4957977;28;20101;-64
2023/12/15 04:48:13;;;;;;;7.72;5.95;;;6.00;89.60;;;;;;4954702;28;20426;-64
2023/12/15 04:50:39;;;;;;;8.57;6.10;;;6.00;89.40;;;;;;4960669;28;20113;-64
2023/12/15 04:53:06;;;;;;;5.78;5.07;;;6.00;89.40;;;;;;4963067;28;20515;-64
2023/12/15 04:55:31;;;;;;;5.60;4.80;;;6.00;89.30;;;;;;4960464;28;20035;-64
2023/12/15 04:57:57;;;;;;;5.82;4.97;;;6.00;89.00;;;;;;4960118;28;20089;-64
2023/12/15 05:00:23;;;;;;;5.63;4.80;;;6.00;88.90;;;;;;4969759;28;20042;-64
2023/12/15 05:02:50;;;;;;;5.93;4.90;;;6.00;88.80;;;;;;4967832;28;20050;-64
2023/12/15 05:05:16;;;;;;;5.93;5.05;;;5.90;88.70;;;;;;4965224;28;20035;-63
2023/12/15 05:07:42;;;;;;;5.90;4.90;;;5.90;88.70;;;;;;4963781;28;20037;-64
2023/12/15 05:10:08;;;;;;;6.05;4.80;;;5.90;88.70;;;;;;4960108;28;20031;-64
2023/12/15 05:12:34;;;;;;;4.63;4.10;;;5.90;88.70;;;;;;4949840;28;20030;-64
2023/12/15 05:15:01;;;;;;;6.50;4.60;;;5.80;88.60;;;;;;4964260;28;20325;-64
2023/12/15 05:17:30;;;;;;;7.53;4.45;;;5.80;88.50;;;;;;4964087;28;20117;-64
2023/12/15 05:19:56;;;;;;;4.80;4.20;;;5.80;88.60;;;;;;4965516;28;20039;-64
2023/12/15 05:22:21;;;;;;;5.22;4.35;;;5.80;88.40;;;;;;4957325;28;20114;-64
2023/12/15 05:24:47;;;;;;;4.88;4.22;;;5.80;88.40;;;;;;4960773;28;20046;-64
2023/12/15 05:27:12;;;;;;;5.22;4.32;;;5.80;88.30;;;;;;4970897;28;20027;-64
2023/12/15 05:29:44;;;;;;;5.40;4.20;;;5.80;88.30;;;;;;4964275;28;20045;-64
2023/12/15 05:32:10;;;;;;;5.82;4.60;;;5.80;88.30;;;;;;4958114;28;20047;-64
2023/12/15 05:34:36;;;;;;;5.13;4.57;;;5.80;88.40;;;;;;4959407;28;20446;-64
2023/12/15 05:37:02;;;;;;;5.22;4.55;;;5.80;88.50;;;;;;4961288;28;20232;-64
2023/12/15 05:39:27;;;;;;;6.55;5.25;;;5.70;88.40;;;;;;4967226;28;20031;-64
2023/12/15 05:41:53;;;;;;;5.30;4.70;;;5.70;88.50;;;;;;4967855;28;20126;-64
2023/12/15 05:44:18;;;;;;;6.20;5.22;;;5.80;88.60;;;;;;4962997;28;20466;-64
2023/12/15 05:46:44;;;;;;;6.28;4.80;;;5.70;88.60;;;;;;4967538;28;20027;-64
2023/12/15 05:49:13;;;;;;;7.22;5.32;;;5.70;88.70;;;;;;4972002;28;20188;-63
2023/12/15 05:51:39;;;;;;;6.63;4.80;;;5.80;89.10;;;;;;4964665;28;20399;-64
2023/12/15 05:54:05;;;;;;;6.30;4.78;;;5.80;89.10;;;;;;4965404;28;20038;-64
2023/12/15 05:56:30;;;;;;;6.53;4.95;;;5.80;89.00;;;;;;4964773;28;20554;-64
2023/12/15 05:58:56;;;;;;;8.73;4.78;;;5.80;88.80;;;;;;4965289;28;20114;-64
2023/12/15 06:01:22;;;;;;;5.78;4.68;;;5.90;89.80;;;;;;4960661;28;20042;-64
2023/12/15 06:03:50;;;;;;;8.05;5.18;;;5.90;88.70;;;;;;4959185;28;20446;-64
2023/12/15 06:06:16;;;;;;;6.88;5.03;;;5.90;88.70;;;;;;4958102;28;20040;-64
2023/12/15 06:08:41;;;;;;;5.97;4.80;;;5.90;88.70;;;;;;4967586;28;20033;-64
2023/12/15 06:11:10;;;;;;;6.45;5.00;;;5.90;88.90;;;;;;4963168;28;20035;-64
2023/12/15 06:13:35;;;;;;;6.65;4.93;;;6.00;88.90;;;;;;4963451;28;20043;-63
2023/12/15 06:16:01;;;;;;;6.25;5.07;;;6.00;88.70;;;;;;4964511;28;20269;-64
2023/12/15 06:18:26;;;;;;;6.57;5.35;;;6.00;88.60;;;;;;4959946;28;20133;-64
2023/12/15 06:20:52;;;;;;;7.30;4.70;;;6.10;88.60;;;;;;4958252;28;20043;-64
2023/12/15 06:23:18;;;;;;;5.07;4.20;;;6.10;88.60;;;;;;4965768;28;20031;-64
2023/12/15 06:25:44;;;;;;;4.95;4.22;;;6.10;88.40;;;;;;4968884;28;20577;-63
2023/12/15 06:28:10;;;;;;;4.65;4.07;;;6.10;88.20;;;;;;4966069;28;20039;-63
2023/12/15 06:30:36;;;;;;;5.45;4.30;;;6.10;88.20;;;;;;4961116;28;20047;-64
2023/12/15 06:33:03;;;;;;;5.03;4.30;;;6.10;88.20;;;;;;4958499;28;20381;-64
2023/12/15 06:35:28;;;;;;;6.38;5.18;;;6.20;88.40;;;;;;4958452;28;20339;-64
2023/12/15 06:37:54;;;;;;;5.05;4.55;;;6.20;88.50;;;;;;4957859;28;20517;-64
2023/12/15 06:40:22;;;;;;;6.90;4.80;;;6.20;88.50;;;;;;4958166;28;20031;-64
2023/12/15 06:42:48;;;;;;;6.10;4.60;;;6.20;88.50;;;;;;4958229;28;20447;-64
2023/12/15 06:45:14;;;;;;;6.15;4.70;;;6.30;88.40;;;;;;4949577;28;20151;-64
2023/12/15 06:47:40;;;;;;;6.57;5.18;;;6.20;88.40;;;;;;4956746;28;20074;-64
2023/12/15 06:50:06;;;;;;;5.97;4.70;;;6.30;88.40;;;;;;4965779;28;20031;-64
2023/12/15 06:52:36;;;;;;;5.55;4.88;;;6.30;88.40;;;;;;4961133;28;20045;-64
2023/12/15 06:55:11;;;;;;;5.22;4.10;;;6.30;88.20;;;;;;4966940;28;20038;-64
2023/12/15 06:57:37;;;;;;;6.55;4.38;;;6.30;88.00;;;;;;4962900;28;20517;-64
2023/12/15 07:00:03;;;;;;;6.25;4.82;;;6.30;87.90;;;;;;4965583;28;20118;-64
2023/12/15 07:02:28;;;;;;;5.78;4.43;;;6.30;87.80;;;;;;4962854;28;20076;-63
2023/12/15 07:04:54;;;;;;;4.75;4.22;;;6.30;87.70;;;;;;4963988;28;20043;-64
2023/12/15 07:07:21;;;;;;;4.65;3.95;;;6.30;87.60;;;;;;4960121;28;20135;-64
2023/12/15 07:09:47;;;;;;;7.47;4.07;;;6.30;87.50;;;;;;4965901;28;20114;-64
2023/12/15 07:12:12;;;;;;;5.95;4.07;;;6.30;87.50;;;;;;4968806;28;20034;-64
2023/12/15 07:14:38;;;;;;;5.00;3.72;;;6.30;87.50;;;;;;4954799;28;20038;-62
2023/12/15 07:17:04;;;;;;;4.38;3.97;;;6.30;87.50;;;;;;4953208;28;20070;-64
2023/12/15 07:19:30;;;;;;;4.45;3.83;;;6.30;87.70;;;;;;4957236;28;20043;-64
2023/12/15 07:21:55;;;;;;;4.97;3.40;;;6.20;87.50;;;;;;4962589;28;20039;-64
2023/12/15 07:24:21;;;;;;;4.13;3.58;;;6.20;87.50;;;;;;4963198;28;20486;-63
2023/12/15 07:26:47;;;;;;;4.00;3.60;;;6.10;87.60;;;;;;4962381;28;20451;-63
2023/12/15 07:29:13;;;;;;;5.72;3.90;;;6.10;87.70;;;;;;4945965;28;20041;-63
2023/12/15 07:31:39;;;;;;;4.78;3.85;;;6.20;87.70;;;;;;4939833;28;20122;-64
2023/12/15 07:34:05;;;;;;;5.63;4.07;;;6.10;87.60;;;;;;4961750;28;20162;-63
2023/12/15 07:36:31;;;;;;;8.65;3.50;;;6.10;87.50;;;;;;4963616;28;20332;-65
2023/12/15 07:38:57;;;;;;;11.57;3.85;;;6.10;87.30;;;;;;4966678;28;20100;-64
2023/12/15 07:41:23;;;;;;;5.75;3.95;;;6.10;87.30;;;;;;4964580;28;20034;-64
2023/12/15 07:43:48;;;;;;;8.90;3.72;;;6.10;87.20;;;;;;4964435;28;20632;-63
2023/12/15 07:46:20;;;;;;;7.22;3.85;;;6.10;87.30;;;;;;4964932;28;20122;-63
2023/12/15 07:48:46;;;;;;;5.30;3.55;;;6.10;87.00;;;;;;4966674;28;20046;-64
2023/12/15 07:51:21;;;;;;;4.18;3.78;;;6.10;87.20;;;;;;4962965;28;20572;-64
2023/12/15 07:53:47;;;;;;;4.40;3.55;;;6.10;87.10;;;;;;4962807;28;20522;-64
2023/12/15 07:56:26;;;;;;;6.15;3.95;;;6.10;87.30;;;;;;4961322;28;20053;-64
2023/12/15 07:58:52;;;;;;;4.25;3.47;;;6.10;87.00;;;;;;4961137;28;20047;-63
2023/12/15 08:01:19;;;;;;;6.10;3.45;;;6.10;87.20;;;;;;4962147;28;20544;-64
2023/12/15 08:03:45;;;;;;;5.50;3.63;;;6.10;87.20;;;;;;4964208;28;20045;-64
2023/12/15 08:06:12;;;;;;;6.65;3.83;;;6.10;87.20;;;;;;4965611;28;20031;-64
2023/12/15 08:08:38;;;;;;;5.60;4.00;;;6.10;87.30;;;;;;4962075;28;20035;-64
2023/12/15 08:11:04;;;;;;;5.60;3.88;;;6.00;87.30;;;;;;4965025;28;20073;-64
2023/12/15 08:13:30;;;;;;;6.88;4.10;;;6.10;87.40;;;;;;4963544;28;20043;-64
2023/12/15 08:15:56;;;;;;;6.63;4.20;;;6.00;87.30;;;;;;4960850;28;22167;-64
2023/12/15 08:18:21;;;;;;;5.22;4.20;;;6.10;87.40;;;;;;4964659;28;20149;-63
2023/12/15 08:20:47;;;;;;;5.22;4.35;;;6.00;87.50;;;;;;4960410;28;20034;-63
2023/12/15 08:23:16;;;;;;;5.53;4.40;;;6.10;87.50;;;;;;4968345;28;20065;-63
2023/12/15 08:25:41;;;;;;;5.43;4.22;;;6.10;87.50;;;;;;4965560;28;20031;-63
2023/12/15 08:28:09;;;;;;;5.93;4.20;;;6.00;87.50;;;;;;4962040;28;20026;-64
2023/12/15 08:30:35;;;;;;;5.63;4.28;;;6.10;87.50;;;;;;4966359;28;20038;-63
2023/12/15 08:33:04;;;;;;;6.00;4.45;;;6.00;87.50;;;;;;4976087;28;20038;-64
2023/12/15 08:35:30;;;;;;;6.80;4.18;;;6.10;87.60;;;;;;4968598;28;20047;-64
2023/12/15 08:37:56;;;;;;;8.50;4.90;;;6.10;87.70;;;;;;4961534;28;20503;-63
2023/12/15 08:40:28;;;;;;;8.15;4.47;;;6.00;87.70;;;;;;4963101;28;20405;-63
2023/12/15 08:42:57;;;;;;;8.45;5.45;;;6.00;87.70;;;;;;4964901;28;20548;-63
2023/12/15 08:45:22;;;;;;;6.20;4.45;;;6.00;87.80;;;;;;4960727;28;20445;-64
2023/12/15 08:47:51;;;;;;;7.13;5.03;;;6.10;87.90;;;;;;4969055;28;20043;-64
2023/12/15 08:50:16;;;;;;;12.18;5.40;;;6.10;87.90;;;;;;4960267;28;20031;-64
2023/12/15 08:52:43;;;;;;;8.32;5.78;;;6.10;87.90;;;;;;4964024;28;20401;-64
2023/12/15 08:55:09;;;;;;;7.65;5.07;;;6.10;87.90;;;;;;4960786;28;20797;-64
2023/12/15 08:57:35;;;;;;;8.43;5.88;;;6.10;87.90;;;;;;4960101;28;20035;-63
2023/12/15 09:00:03;;;;;;;7.03;5.45;;;6.20;88.00;;;;;;4971483;28;20453;-64
2023/12/15 09:02:31;;;;;;;8.27;4.72;;;6.20;88.10;;;;;;4965326;28;20039;-64
2023/12/15 09:05:03;;;;;;;7.32;5.22;;;6.20;88.20;;;;;;4970924;28;20042;-64
2023/12/15 09:07:29;;;;;;;7.05;4.80;;;6.20;88.00;;;;;;4968213;28;20115;-64
2023/12/15 09:09:57;;;;;;;7.40;5.03;;;6.30;88.20;;;;;;4966451;28;20114;-63
2023/12/15 09:12:23;;;;;;;6.95;5.20;;;6.20;88.00;;;;;;4966888;28;20032;-64
2023/12/15 09:14:50;;;;;;;7.53;5.10;;;6.30;88.20;;;;;;4961266;28;20053;-63
2023/12/15 09:17:17;;;;;;;5.85;4.82;;;6.30;88.20;;;;;;4968234;28;20031;-64
2023/12/15 09:19:43;;;;;;;5.95;4.75;;;6.40;88.20;;;;;;4964514;28;20122;-63
2023/12/15 09:22:08;;;;;;;5.63;5.00;;;6.40;88.20;;;;;;4959895;28;20114;-63
2023/12/15 09:24:37;;;;;;;6.93;5.20;;;6.40;88.20;;;;;;4967385;28;20043;-64
2023/12/15 09:27:03;;;;;;;7.07;4.82;;;6.50;88.20;;;;;;4961133;28;20320;-64
2023/12/15 09:29:35;;;;;;;8.68;4.82;;;6.50;88.20;;;;;;4961470;28;20043;-64
2023/12/15 09:32:02;;;;;;;5.68;4.50;;;6.50;88.00;;;;;;4962384;28;20042;-64
2023/12/15 09:34:27;;;;;;;6.72;4.63;;;6.50;88.10;;;;;;4964316;28;20486;-63
2023/12/15 09:36:53;;;;;;;6.75;4.50;;;6.60;88.20;;;;;;4961273;28;20043;-64
2023/12/15 09:39:20;;;;;;;6.88;4.85;;;6.60;88.20;;;;;;4963614;28;20033;-64
2023/12/15 09:41:46;;;;;;;7.28;5.05;;;6.60;87.90;;;;;;4969931;28;20585;-64
2023/12/15 09:44:15;;;;;;;5.72;4.97;;;6.60;88.90;;;;;;4963462;28;20035;-64
2023/12/15 09:46:43;;;;;;;6.68;4.90;;;6.70;88.10;;;;;;4971395;28;20039;-64
2023/12/15 09:49:11;;;;;;;9.63;5.50;;;6.70;88.10;;;;;;4967697;28;20033;-64
2023/12/15 09:51:38;;;;;;;6.43;5.20;;;6.80;88.20;;;;;;4961659;28;20065;-64
2023/12/15 09:54:07;;;;;;;7.40;5.40;;;6.80;88.30;;;;;;4968879;28;20085;-64
2023/12/15 09:56:35;;;;;;;7.30;5.05;;;6.90;88.30;;;;;;4964374;28;20041;-63
2023/12/15 09:59:04;;;;;;;7.22;5.38;;;6.90;88.10;;;;;;4952954;28;20039;-64
2023/12/15 10:01:31;;;;;;;6.00;5.20;;;6.90;87.80;;;;;;4966339;28;20126;-64
2023/12/15 10:03:57;;;;;;;8.18;5.30;;;7.00;87.60;;;;;;4970637;28;20170;-64
2023/12/15 10:06:24;;;;;;;7.53;4.80;;;6.90;87.40;;;;;;4958203;28;20610;-64
2023/12/15 10:08:49;;;;;;;7.47;4.80;;;7.00;87.40;;;;;;4949453;28;20446;-65
2023/12/15 10:11:16;;;;;;;6.40;4.63;;;7.00;87.40;;;;;;4961252;28;20031;-63
2023/12/15 10:13:45;;;;;;;6.57;4.80;;;7.10;87.40;;;;;;4959098;28;20035;-64
2023/12/15 10:16:14;;;;;;;5.97;5.05;;;7.10;87.10;;;;;;4956483;28;20122;-64
2023/12/15 10:18:39;;;;;;;6.93;5.07;;;7.10;86.70;;;;;;4955505;28;20047;-64
2023/12/15 10:21:06;;;;;;;7.70;5.63;;;7.20;86.10;;;;;;4960522;28;20031;-64
2023/12/15 10:23:32;;;;;;;7.68;5.20;;;7.20;86.10;;;;;;4954087;28;20031;-64
2023/12/15 10:26:04;;;;;;;7.75;5.55;;;7.20;86.00;;;;;;4964628;28;20026;-64
2023/12/15 10:28:38;;;;;;;9.68;5.28;;;7.20;86.20;;;;;;4962543;28;20043;-64
2023/12/15 10:31:08;;;;;;;6.63;5.10;;;7.20;86.00;;;;;;4965085;28;20622;-64
2023/12/15 10:33:34;;;;;;;7.07;5.40;;;7.20;85.90;;;;;;4963743;28;20464;-64
2023/12/15 10:36:00;;;;;;;11.73;5.75;;;7.30;86.20;;;;;;4952720;28;20083;-63
2023/12/15 10:38:30;;;;;;;7.47;5.53;;;7.30;86.30;;;;;;4961326;28;20122;-64
2023/12/15 10:41:00;;;;;;;5.82;4.90;;;7.30;86.30;;;;;;4956039;28;20046;-64
2023/12/15 10:43:28;;;;;;;6.07;5.07;;;7.30;86.60;;;;;;4963180;28;20510;-64
2023/12/15 10:45:58;;;;;;;7.20;5.00;;;7.40;86.70;;;;;;4957603;28;20053;-64
2023/12/15 10:48:25;;;;;;;5.93;4.93;;;7.40;86.00;;;;;;4955420;28;20175;-63
2023/12/15 10:50:52;;;;;;;6.15;5.10;;;7.50;85.90;;;;;;4964542;28;20135;-64
2023/12/15 10:53:21;;;;;;;6.13;5.10;;;7.50;85.60;;;;;;4964823;28;20028;-63
2023/12/15 10:55:48;;;;;;;6.72;5.63;;;7.50;85.40;;;;;;4973753;28;20574;-63
2023/12/15 10:58:14;;;;;;;9.77;8.13;;;7.50;85.40;;;;;;4969823;28;20470;-63
2023/12/15 11:00:40;;;;;;;6.57;5.63;;;7.50;85.80;;;;;;4967137;28;20038;-63
2023/12/15 11:03:10;;;;;;;7.75;5.47;;;7.50;85.70;;;;;;4969268;28;20516;-63
2023/12/15 11:05:36;;;;;;;5.95;4.68;;;7.50;85.50;;;;;;4972705;28;20557;-63
2023/12/15 11:08:02;;;;;;;8.07;5.00;;;7.60;85.60;;;;;;4976313;28;20039;-64
2023/12/15 11:10:28;;;;;;;6.28;5.28;;;7.70;85.50;;;;;;4973672;28;20030;-63
2023/12/15 11:12:53;;;;;;;6.60;5.10;;;7.70;85.00;;;;;;4973408;28;20459;-63
2023/12/15 11:15:19;;;;;;;6.18;4.72;;;7.70;85.00;;;;;;4975437;28;20512;-63
2023/12/15 11:17:53;;;;;;;8.02;4.85;;;7.70;85.10;;;;;;4972395;28;20083;-63
2023/12/15 11:20:18;;;;;;;17.17;5.15;;;7.70;84.70;;;;;;4977883;28;20031;-63
2023/12/15 11:22:57;;;;;;;12.30;4.78;;;7.70;85.00;;;;;;4971429;28;20030;-63
2023/12/15 11:25:35;;;;;;;12.23;5.13;;;7.80;84.90;;;;;;4973247;28;20031;-63
2023/12/15 11:28:03;;;;;;;6.38;4.90;;;7.80;84.60;;;;;;4975599;28;20034;-63
2023/12/15 11:30:52;;;;;;;6.93;5.00;;;7.80;85.20;;;;;;4971051;28;20030;-63
2023/12/15 11:33:23;;;;;;;5.70;4.97;;;7.90;83.80;;;;;;4963932;28;20035;-63
2023/12/15 11:36:02;;;;;;;5.88;4.88;;;7.90;84.30;;;;;;4973704;28;20043;-63
2023/12/15 11:38:29;;;;;;;6.13;4.60;;;7.90;83.40;;;;;;4974082;28;20030;-64
2023/12/15 11:40:55;;;;;;;6.07;4.97;;;7.90;83.90;;;;;;4972818;28;20045;-63
2023/12/15 11:43:23;;;;;;;6.63;4.95;;;7.90;83.90;;;;;;4974123;28;20039;-63
2023/12/15 11:45:54;;;;;;;7.00;5.00;;;7.90;83.80;;;;;;4973681;28;20027;-63
2023/12/15 11:48:22;;;;;;;5.45;4.78;;;7.90;83.60;;;;;;4966355;28;20110;-63
2023/12/15 11:50:48;;;;;;;6.85;4.93;;;7.90;84.00;;;;;;4962249;28;20027;-63
2023/12/15 11:53:14;;;;;;;9.15;5.45;;;7.90;84.10;;;;;;4963832;28;20442;-63
2023/12/15 11:55:40;;;;;;;6.22;4.95;;;7.90;84.00;;;;;;4964941;28;20041;-63
2023/12/15 11:58:06;;;;;;;6.18;5.00;;;7.90;84.10;;;;;;4972265;28;20080;-63
2023/12/15 12:00:32;;;;;;;6.10;4.88;;;7.90;84.00;;;;;;4968026;28;20031;-63
2023/12/15 12:02:58;;;;;;;12.93;5.20;;;7.90;84.10;;;;;;4974297;28;20035;-63
2023/12/15 12:05:24;;;;;;;5.70;4.50;;;7.90;84.30;;;;;;4973227;28;20046;-63
2023/12/15 12:07:50;;;;;;;6.38;4.82;;;7.90;84.40;;;;;;4971888;28;20039;-63
2023/12/15 12:10:19;;;;;;;6.57;5.25;;;8.00;84.20;;;;;;4970786;28;20042;-63
2023/12/15 12:12:44;;;;;;;5.43;4.72;;;8.00;84.30;;;;;;4978273;28;20067;-63
2023/12/15 12:15:10;;;;;;;7.68;4.50;;;8.10;84.50;;;;;;4977639;28;20042;-63
2023/12/15 12:17:39;;;;;;;5.05;4.30;;;8.10;84.20;;;;;;4974462;28;20027;-63
2023/12/15 12:20:11;;;;;;;5.10;4.25;;;8.20;83.90;;;;;;4974164;28;20125;-63
2023/12/15 12:22:41;;;;;;;5.93;4.50;;;8.20;83.50;;;;;;4975595;28;20034;-63
2023/12/15 12:25:09;;;;;;;6.05;4.57;;;8.20;83.10;;;;;;4982392;28;20061;-63
2023/12/15 12:27:36;;;;;;;6.10;4.40;;;8.20;83.10;;;;;;4977385;28;20491;-63
2023/12/15 12:30:03;;;;;;;5.05;4.55;;;8.20;83.10;;;;;;4968552;28;20122;-63
2023/12/15 12:32:28;;;;;;;6.40;4.45;;;8.20;83.20;;;;;;4975727;28;20390;-64
2023/12/15 12:34:54;;;;;;;5.47;4.32;;;8.20;84.30;;;;;;4974733;28;20646;-63
2023/12/15 12:37:20;;;;;;;4.82;3.95;;;8.20;83.10;;;;;;4978812;28;20043;-63
2023/12/15 12:39:45;;;;;;;5.60;3.95;;;8.20;83.10;;;;;;4983001;28;20069;-63
2023/12/15 12:42:14;;;;;;;5.75;3.60;;;8.30;83.10;;;;;;4979728;28;20062;-63
2023/12/15 12:44:43;;;;;;;4.70;4.20;;;8.30;83.10;;;;;;4973401;28;20038;-63
2023/12/15 12:47:08;;;;;;;5.70;3.90;;;8.30;83.10;;;;;;4982981;28;20089;-63
2023/12/15 12:49:34;;;;;;;4.85;3.90;;;8.30;83.20;;;;;;4980732;28;20039;-63
2023/12/15 12:51:59;;;;;;;4.68;3.88;;;8.30;83.10;;;;;;4980374;28;20023;-63
2023/12/15 12:54:25;;;;;;;6.75;4.55;;;8.40;82.70;;;;;;4979921;28;20076;-64